Time;durP1;ratioP1;P1;durP2;ratioP2;P2;SDS_P1;SDS_P2;PMS_P1;PMS_P2;Temp;Humidity;BMP_temperature;BMP_pressure;BME280_temperature;BME280_humidity;BME280_pressure;Samples;Min_cycle;Max_cycle;Signal;HPM_P1;HPM_P2
2022/03/31 00:00:18;;;;;;;7.83;5.90;;;14.00;82.80;;;;;;5009320;28;20501;-69
2022/03/31 00:02:47;;;;;;;10.30;6.50;;;14.00;82.70;;;;;;4994307;28;20912;-70
2022/03/31 00:05:13;;;;;;;9.30;6.70;;;14.00;82.70;;;;;;4994059;28;20408;-69
2022/03/31 00:08:10;;;;;;;7.07;6.07;;;14.00;82.80;;;;;;4982349;28;20443;-69
2022/03/31 00:10:45;;;;;;;7.60;6.37;;;13.90;82.60;;;;;;4993001;28;20455;-70
2022/03/31 00:13:13;;;;;;;8.40;7.00;;;14.00;82.70;;;;;;4977395;28;20463;-69
2022/03/31 00:15:40;;;;;;;12.07;6.57;;;13.90;82.60;;;;;;5009117;28;20514;-70
2022/03/31 00:18:34;;;;;;;7.87;6.50;;;13.90;82.70;;;;;;4983542;28;20434;-69
2022/03/31 00:21:00;;;;;;;9.43;6.87;;;13.90;82.60;;;;;;4970689;28;20439;-69
2022/03/31 00:23:51;;;;;;;11.23;6.17;;;13.90;82.70;;;;;;5008892;28;20467;-69
2022/03/31 00:26:16;;;;;;;8.47;5.97;;;13.90;82.80;;;;;;5002731;28;20452;-69
2022/03/31 00:29:36;;;;;;;9.10;6.60;;;13.90;82.90;;;;;;4995792;28;20430;-69
2022/03/31 00:32:10;;;;;;;8.10;6.33;;;13.90;82.90;;;;;;5009130;28;20779;-69
2022/03/31 00:34:36;;;;;;;11.23;6.13;;;13.90;82.90;;;;;;4975936;28;20911;-69
2022/03/31 00:37:56;;;;;;;8.00;5.50;;;13.90;82.90;;;;;;4984760;28;20448;-69
2022/03/31 00:41:16;;;;;;;7.93;6.13;;;13.90;83.00;;;;;;4999827;28;20420;-69
2022/03/31 00:50:04;;;;;;;8.87;5.90;;;13.80;83.00;;;;;;5206473;23;20507;-73
2022/03/31 00:53:21;;;;;;;7.97;6.17;;;13.80;83.10;;;;;;4912685;29;20973;-71
2022/03/31 00:57:02;;;;;;;8.87;6.57;;;13.80;83.10;;;;;;4880113;29;20436;-73
2022/03/31 01:00:42;;;;;;;9.60;6.57;;;13.80;83.20;;;;;;4879999;29;20791;-73
2022/03/31 01:04:23;;;;;;;6.20;5.10;;;13.70;83.30;;;;;;4879209;29;20467;-72
2022/03/31 01:18:10;;;;;;;7.80;5.87;;;13.70;83.60;;;;;;5549800;23;20603;-72
2022/03/31 01:20:36;;;;;;;15.07;7.90;;;13.60;83.50;;;;;;4969970;28;20539;-71
2022/03/31 01:23:14;;;;;;;8.60;6.00;;;13.60;83.60;;;;;;4953294;28;20821;-72
2022/03/31 01:26:08;;;;;;;8.87;6.27;;;13.60;83.60;;;;;;4993731;28;20442;-72
2022/03/31 01:28:36;;;;;;;8.50;5.50;;;13.60;83.60;;;;;;4975227;28;20423;-72
2022/03/31 01:31:02;;;;;;;8.33;5.77;;;13.60;83.50;;;;;;4973858;28;20398;-72
2022/03/31 01:33:32;;;;;;;8.17;5.70;;;13.60;83.50;;;;;;4982068;28;20512;-72
2022/03/31 01:35:59;;;;;;;10.23;6.10;;;13.60;83.60;;;;;;4974424;28;20426;-72
2022/03/31 01:38:28;;;;;;;9.37;6.10;;;13.60;83.50;;;;;;4975572;28;20940;-72
2022/03/31 01:40:53;;;;;;;8.77;6.30;;;13.60;83.60;;;;;;4974001;28;20538;-72
2022/03/31 01:43:21;;;;;;;8.07;5.80;;;13.60;83.60;;;;;;4971322;28;20496;-72
2022/03/31 01:45:49;;;;;;;7.53;5.70;;;13.60;83.70;;;;;;4959345;28;20508;-72
2022/03/31 01:48:41;;;;;;;7.40;5.70;;;13.60;83.80;;;;;;4956387;28;20442;-72
2022/03/31 01:51:10;;;;;;;11.27;5.70;;;13.60;83.80;;;;;;4994096;28;20840;-72
2022/03/31 01:53:38;;;;;;;8.77;5.83;;;13.60;83.80;;;;;;4976884;28;21007;-72
2022/03/31 01:56:06;;;;;;;9.60;5.63;;;13.60;83.90;;;;;;5010442;28;20501;-72
2022/03/31 01:58:34;;;;;;;9.20;5.27;;;13.50;83.80;;;;;;4957415;28;20426;-72
2022/03/31 02:01:00;;;;;;;7.90;5.70;;;13.50;83.80;;;;;;4985205;28;20508;-72
2022/03/31 02:03:26;;;;;;;7.37;6.40;;;13.60;84.00;;;;;;5008936;28;20455;-72
2022/03/31 02:05:53;;;;;;;8.43;5.77;;;13.50;83.90;;;;;;4986997;28;20497;-72
2022/03/31 02:08:24;;;;;;;9.17;5.83;;;13.50;84.00;;;;;;4994019;28;20470;-72
2022/03/31 02:10:50;;;;;;;8.80;6.70;;;13.50;84.00;;;;;;4983826;28;20422;-72
2022/03/31 02:13:16;;;;;;;10.27;5.70;;;13.50;84.10;;;;;;4979503;28;20463;-70
2022/03/31 02:15:43;;;;;;;8.20;7.27;;;13.50;84.10;;;;;;4967203;28;20467;-72
2022/03/31 02:18:34;;;;;;;7.57;6.03;;;13.50;84.20;;;;;;4957291;28;20529;-72
2022/03/31 02:21:00;;;;;;;7.67;6.10;;;13.50;84.20;;;;;;4966491;28;20972;-72
2022/03/31 02:23:30;;;;;;;9.60;6.50;;;13.50;84.20;;;;;;4989966;28;20539;-72
2022/03/31 02:25:59;;;;;;;12.20;6.60;;;13.40;84.10;;;;;;4964554;28;20863;-72
2022/03/31 02:28:29;;;;;;;9.60;6.43;;;13.50;84.30;;;;;;4954050;28;20982;-72
2022/03/31 02:30:55;;;;;;;9.03;6.23;;;13.40;84.30;;;;;;4960490;28;20421;-71
2022/03/31 02:33:46;;;;;;;8.33;6.10;;;13.40;84.30;;;;;;4936825;29;20410;-72
2022/03/31 02:36:12;;;;;;;7.60;6.13;;;13.40;84.40;;;;;;4941440;29;20452;-71
2022/03/31 02:41:35;;;;;;;8.67;5.90;;;13.40;84.50;;;;;;5614062;23;20545;-73
2022/03/31 02:44:33;;;;;;;7.33;6.03;;;13.40;84.60;;;;;;5034353;23;20496;-72
2022/03/31 02:47:49;;;;;;;8.90;6.17;;;13.40;84.60;;;;;;4966266;28;20917;-72
2022/03/31 02:50:46;;;;;;;8.00;6.20;;;13.40;84.60;;;;;;4973346;28;20566;-72
2022/03/31 02:56:00;;;;;;;9.63;7.20;;;13.30;84.70;;;;;;4957891;28;20448;-72
2022/03/31 02:58:26;;;;;;;11.93;6.93;;;13.30;84.80;;;;;;4955280;28;20417;-71
2022/03/31 03:01:20;;;;;;;10.40;6.13;;;13.30;84.80;;;;;;4956152;28;20433;-72
2022/03/31 03:03:47;;;;;;;9.20;7.07;;;13.30;84.80;;;;;;4972474;28;20495;-71
2022/03/31 03:06:19;;;;;;;9.17;6.80;;;13.30;84.90;;;;;;4973208;28;20464;-72
2022/03/31 03:09:14;;;;;;;8.07;6.13;;;13.30;85.00;;;;;;4955002;28;20468;-72
2022/03/31 03:11:40;;;;;;;8.10;6.47;;;13.30;85.00;;;;;;4972931;28;20403;-73
2022/03/31 03:14:57;;;;;;;7.50;5.90;;;13.20;84.90;;;;;;4952238;29;20431;-72
2022/03/31 03:18:39;;;;;;;9.40;6.50;;;13.20;85.00;;;;;;4971853;28;20207;-72
2022/03/31 03:21:59;;;;;;;8.23;5.43;;;13.20;85.10;;;;;;4986320;28;20438;-72
2022/03/31 03:25:40;;;;;;;7.57;6.70;;;13.20;85.20;;;;;;4972379;28;20541;-72
2022/03/31 03:28:32;;;;;;;8.70;6.80;;;13.20;85.40;;;;;;4972730;28;20485;-72
2022/03/31 03:31:52;;;;;;;6.77;5.47;;;13.20;85.50;;;;;;4972465;28;20537;-72
2022/03/31 03:34:44;;;;;;;8.50;6.23;;;13.20;85.60;;;;;;4968448;28;20575;-72
2022/03/31 03:37:39;;;;;;;8.83;6.93;;;13.20;85.80;;;;;;4949314;29;20863;-72
2022/03/31 03:40:36;;;;;;;9.53;6.27;;;13.20;85.90;;;;;;4951916;28;20449;-71
2022/03/31 03:43:02;;;;;;;9.13;6.80;;;13.20;86.00;;;;;;4952741;29;20484;-72
2022/03/31 03:50:02;;;;;;;8.33;6.10;;;13.10;86.10;;;;;;4932806;29;20440;-72
2022/03/31 03:52:58;;;;;;;9.80;7.47;;;13.10;86.30;;;;;;4935017;29;20486;-72
2022/03/31 03:55:26;;;;;;;9.20;6.10;;;13.10;86.60;;;;;;4951638;29;20469;-72
2022/03/31 03:58:44;;;;;;;11.87;7.30;;;13.10;86.90;;;;;;4951954;29;20425;-72
2022/03/31 04:01:13;;;;;;;8.43;5.93;;;13.10;87.10;;;;;;4951733;29;20477;-72
2022/03/31 04:03:39;;;;;;;11.83;6.67;;;13.10;88.00;;;;;;4952980;29;20489;-72
2022/03/31 04:06:56;;;;;;;14.03;6.70;;;13.10;87.60;;;;;;4951534;28;20447;-72
2022/03/31 04:25:55;;;;;;;10.97;7.67;;;13.00;89.00;;;;;;4937164;29;20440;-72
2022/03/31 04:29:16;;;;;;;9.97;7.73;;;13.00;89.40;;;;;;4941903;29;20415;-72
2022/03/31 04:32:32;;;;;;;12.27;8.27;;;13.00;89.60;;;;;;4956000;29;20512;-72
2022/03/31 04:35:49;;;;;;;12.20;8.70;;;13.00;89.90;;;;;;4955946;28;20470;-72
2022/03/31 04:43:12;;;;;;;11.07;7.80;;;12.90;90.00;;;;;;4954913;29;20468;-72
2022/03/31 04:46:33;;;;;;;10.63;7.30;;;12.90;90.10;;;;;;4919851;29;20463;-72
2022/03/31 04:49:07;;;;;;;10.93;7.10;;;12.90;90.20;;;;;;4909595;29;20449;-72
2022/03/31 04:51:33;;;;;;;13.50;8.83;;;12.90;90.20;;;;;;4947800;29;20529;-72
2022/03/31 04:54:03;;;;;;;13.43;8.87;;;12.90;90.30;;;;;;4955116;28;20455;-72
2022/03/31 04:56:29;;;;;;;13.83;7.90;;;12.90;90.70;;;;;;4956217;29;20893;-71
2022/03/31 04:58:57;;;;;;;11.43;7.80;;;12.90;90.30;;;;;;4954236;29;20483;-71
2022/03/31 05:01:25;;;;;;;11.10;8.17;;;12.90;90.30;;;;;;4955332;28;20414;-72
2022/03/31 05:04:24;;;;;;;11.20;8.20;;;12.90;90.40;;;;;;4954703;28;20407;-72
2022/03/31 05:06:50;;;;;;;13.97;8.13;;;12.90;90.40;;;;;;4954032;28;20513;-72
2022/03/31 05:09:21;;;;;;;12.60;8.93;;;12.90;90.40;;;;;;4954480;28;21027;-71
2022/03/31 05:12:18;;;;;;;10.90;7.40;;;12.90;90.40;;;;;;4954025;28;20593;-72
2022/03/31 05:14:49;;;;;;;10.63;8.47;;;12.80;90.40;;;;;;4943106;29;20858;-72
2022/03/31 05:17:15;;;;;;;13.33;8.17;;;12.80;90.40;;;;;;4953331;29;20461;-72
2022/03/31 05:23:27;;;;;;;10.30;7.80;;;12.80;90.40;;;;;;4955271;29;20953;-73
2022/03/31 05:26:45;;;;;;;11.63;8.30;;;12.80;90.50;;;;;;4953820;29;20442;-73
2022/03/31 05:30:06;;;;;;;11.73;7.70;;;12.80;90.50;;;;;;4953739;29;20407;-74
2022/03/31 05:33:23;;;;;;;12.50;7.77;;;12.80;90.60;;;;;;4953901;29;20449;-74
2022/03/31 05:36:42;;;;;;;13.17;7.60;;;12.80;90.60;;;;;;4955579;28;20465;-74
2022/03/31 05:39:37;;;;;;;13.20;8.20;;;12.80;90.70;;;;;;4953229;29;20461;-74
2022/03/31 05:42:04;;;;;;;11.57;7.07;;;12.80;90.70;;;;;;4953353;29;20450;-74
2022/03/31 05:45:21;;;;;;;11.43;8.00;;;12.70;90.70;;;;;;4934400;29;20434;-73
2022/03/31 05:48:37;;;;;;;10.20;8.17;;;12.70;90.70;;;;;;4939339;29;20411;-74
2022/03/31 05:51:03;;;;;;;10.40;7.70;;;12.70;90.70;;;;;;4937530;29;20453;-73
2022/03/31 05:53:32;;;;;;;10.53;7.70;;;12.70;90.80;;;;;;4953307;28;20485;-73
2022/03/31 05:56:00;;;;;;;11.97;7.87;;;12.70;90.80;;;;;;4953170;28;20481;-74
2022/03/31 05:58:29;;;;;;;10.13;7.30;;;12.70;90.80;;;;;;4954799;28;20912;-73
2022/03/31 06:00:55;;;;;;;10.00;7.53;;;12.70;90.80;;;;;;4937393;29;20853;-73
2022/03/31 06:03:25;;;;;;;11.63;7.80;;;12.70;91.00;;;;;;4953552;28;20854;-73
2022/03/31 06:05:54;;;;;;;14.90;8.23;;;12.70;90.90;;;;;;4960395;28;20508;-74
2022/03/31 06:08:21;;;;;;;11.20;8.00;;;12.70;90.90;;;;;;4953241;28;20419;-74
2022/03/31 06:10:48;;;;;;;9.83;7.57;;;12.70;90.90;;;;;;4934567;29;20435;-73
2022/03/31 06:14:05;;;;;;;9.03;6.80;;;12.70;90.90;;;;;;4935743;28;20633;-76
2022/03/31 06:17:04;;;;;;;10.87;7.70;;;12.70;91.00;;;;;;4941053;28;20456;-74
2022/03/31 06:19:31;;;;;;;11.97;8.40;;;12.70;91.00;;;;;;4949302;28;20952;-74
2022/03/31 06:22:51;;;;;;;9.43;7.00;;;12.60;91.00;;;;;;4950981;28;21007;-74
2022/03/31 06:25:17;;;;;;;13.80;8.50;;;12.60;91.00;;;;;;4933812;28;20459;-70
2022/03/31 06:27:46;;;;;;;15.17;8.10;;;12.60;91.10;;;;;;4954609;28;20477;-74
2022/03/31 06:30:47;;;;;;;11.67;8.27;;;12.60;91.20;;;;;;4954374;28;20409;-73
2022/03/31 06:33:38;;;;;;;14.23;7.20;;;12.60;91.20;;;;;;4935004;29;20499;-74
2022/03/31 06:36:08;;;;;;;12.00;8.30;;;12.60;91.20;;;;;;4940619;29;20975;-73
2022/03/31 06:39:06;;;;;;;14.73;8.97;;;12.60;91.30;;;;;;4951984;28;20494;-73
2022/03/31 06:41:34;;;;;;;10.73;7.10;;;12.50;91.30;;;;;;4934083;29;20418;-74
2022/03/31 06:44:50;;;;;;;12.77;8.50;;;12.60;91.30;;;;;;4935033;29;20763;-74
2022/03/31 06:48:41;;;;;;;11.53;8.13;;;12.60;91.40;;;;;;4946950;29;20454;-74
2022/03/31 06:52:01;;;;;;;11.70;8.03;;;12.50;91.40;;;;;;4952243;29;20439;-74
2022/03/31 06:54:31;;;;;;;11.03;7.80;;;12.50;91.50;;;;;;4952869;28;20826;-74
2022/03/31 06:57:00;;;;;;;10.60;8.43;;;12.50;91.60;;;;;;4953372;29;20443;-74
2022/03/31 07:00:18;;;;;;;9.50;7.20;;;12.50;91.60;;;;;;4953816;29;20423;-73
2022/03/31 07:02:44;;;;;;;10.90;8.30;;;12.50;91.60;;;;;;4936075;29;20463;-73
2022/03/31 07:05:10;;;;;;;10.10;7.47;;;12.50;91.60;;;;;;4951693;29;20433;-74
2022/03/31 07:07:38;;;;;;;13.00;7.33;;;12.40;91.60;;;;;;4920619;29;20556;-72
2022/03/31 07:10:14;;;;;;;10.67;7.30;;;12.50;91.70;;;;;;4953095;29;20494;-73
2022/03/31 07:12:40;;;;;;;13.87;8.10;;;12.50;91.70;;;;;;4953686;29;20727;-74
2022/03/31 07:15:10;;;;;;;12.70;7.87;;;12.50;91.70;;;;;;4953727;28;20488;-73
2022/03/31 07:17:44;;;;;;;13.80;8.77;;;12.50;91.70;;;;;;4936848;29;20498;-73
2022/03/31 07:20:11;;;;;;;11.37;9.23;;;12.50;91.80;;;;;;4953773;28;20419;-73
2022/03/31 07:22:47;;;;;;;12.80;8.50;;;12.50;91.90;;;;;;4933076;29;20452;-73
2022/03/31 07:25:16;;;;;;;14.13;8.30;;;12.40;91.90;;;;;;4928329;29;20973;-73
2022/03/31 07:28:32;;;;;;;12.20;8.03;;;12.50;91.90;;;;;;4936853;29;20419;-73
2022/03/31 07:31:01;;;;;;;11.40;8.43;;;12.40;91.90;;;;;;4952337;29;20431;-74
2022/03/31 07:33:27;;;;;;;10.43;7.70;;;12.50;92.00;;;;;;4953507;28;20461;-73
2022/03/31 07:35:59;;;;;;;9.97;7.40;;;12.40;92.00;;;;;;4936754;29;20440;-73
2022/03/31 07:38:53;;;;;;;9.80;8.30;;;12.40;92.10;;;;;;4935893;29;20441;-73
2022/03/31 07:41:26;;;;;;;10.67;8.47;;;12.40;92.10;;;;;;4952682;28;20783;-73
2022/03/31 07:44:02;;;;;;;10.40;8.03;;;12.40;92.10;;;;;;4936926;29;20445;-73
2022/03/31 07:46:32;;;;;;;10.13;7.40;;;12.40;92.10;;;;;;4951651;29;20468;-74
2022/03/31 07:48:59;;;;;;;11.17;8.17;;;12.40;92.20;;;;;;4916457;29;20417;-73
2022/03/31 07:51:29;;;;;;;11.23;8.10;;;12.40;92.30;;;;;;4935675;29;20944;-74
2022/03/31 07:54:02;;;;;;;14.90;8.23;;;12.40;92.30;;;;;;4955131;29;20461;-73
2022/03/31 07:56:28;;;;;;;9.63;7.70;;;12.40;92.30;;;;;;4956097;29;20674;-73
2022/03/31 07:58:57;;;;;;;11.30;7.80;;;12.40;92.40;;;;;;4956411;29;20430;-72
2022/03/31 08:04:29;;;;;;;11.80;7.90;;;12.40;92.80;;;;;;4956211;28;20506;-75
2022/03/31 08:07:02;;;;;;;13.23;8.93;;;12.40;92.50;;;;;;4939806;29;20459;-75
2022/03/31 08:09:33;;;;;;;11.77;7.90;;;12.40;92.50;;;;;;4939031;29;20855;-74
2022/03/31 08:12:00;;;;;;;11.73;8.00;;;12.40;92.50;;;;;;4955576;29;20852;-74
2022/03/31 08:14:25;;;;;;;11.90;7.70;;;12.40;92.60;;;;;;4955723;29;20458;-74
2022/03/31 08:17:17;;;;;;;9.97;7.40;;;12.40;92.70;;;;;;4955778;28;20520;-74
2022/03/31 08:19:47;;;;;;;12.60;7.90;;;12.40;92.70;;;;;;4924102;29;20187;-75
2022/03/31 08:22:17;;;;;;;11.23;8.17;;;12.30;92.70;;;;;;4940053;29;20413;-74
2022/03/31 08:25:10;;;;;;;12.10;7.90;;;12.40;92.70;;;;;;4955483;28;20428;-74
2022/03/31 08:27:40;;;;;;;10.57;7.63;;;12.30;92.70;;;;;;4956530;28;20414;-75
2022/03/31 08:30:19;;;;;;;11.10;7.53;;;12.40;92.80;;;;;;4955177;29;20615;-74
2022/03/31 08:33:42;;;;;;;11.27;8.53;;;12.30;93.20;;;;;;4940989;29;20472;-75
2022/03/31 08:36:14;;;;;;;10.90;7.47;;;12.30;92.80;;;;;;4948377;28;20451;-74
2022/03/31 08:39:08;;;;;;;9.50;7.33;;;12.40;92.90;;;;;;4935156;29;20424;-74
2022/03/31 08:42:26;;;;;;;12.30;8.00;;;12.30;92.90;;;;;;4956505;29;20431;-74
2022/03/31 08:48:12;;;;;;;11.70;7.70;;;12.30;93.10;;;;;;4953911;28;20437;-75
2022/03/31 08:51:29;;;;;;;10.80;8.27;;;12.30;93.20;;;;;;4954215;29;20454;-74
2022/03/31 08:54:24;;;;;;;11.80;8.50;;;12.30;93.20;;;;;;4948306;29;20458;-74
2022/03/31 08:57:46;;;;;;;12.43;8.37;;;12.30;93.20;;;;;;4938719;29;20822;-74
2022/03/31 09:00:43;;;;;;;10.90;8.67;;;12.30;93.30;;;;;;4944639;29;20442;-74
2022/03/31 09:03:11;;;;;;;13.93;7.73;;;12.30;93.30;;;;;;4954515;28;20426;-74
2022/03/31 09:06:31;;;;;;;11.27;8.03;;;12.30;93.30;;;;;;4937109;28;20467;-74
2022/03/31 09:09:23;;;;;;;12.67;9.00;;;12.30;93.40;;;;;;4966341;28;20552;-74
2022/03/31 09:11:53;;;;;;;10.40;7.53;;;12.30;93.30;;;;;;4955243;29;20441;-74
2022/03/31 09:14:34;;;;;;;11.60;7.93;;;12.30;93.40;;;;;;4935557;29;20468;-74
2022/03/31 09:17:14;;;;;;;9.13;7.70;;;12.30;93.40;;;;;;4954390;28;20533;-74
2022/03/31 09:20:14;;;;;;;11.57;8.10;;;12.30;93.40;;;;;;4963922;28;20545;-75
2022/03/31 09:22:48;;;;;;;13.57;9.13;;;12.30;93.40;;;;;;4952803;29;20418;-75
2022/03/31 09:26:07;;;;;;;12.13;8.23;;;12.30;93.40;;;;;;4952644;28;20496;-75
2022/03/31 09:29:27;;;;;;;9.47;7.50;;;12.30;93.40;;;;;;4953263;28;20505;-74
2022/03/31 09:32:44;;;;;;;11.77;8.30;;;12.30;93.30;;;;;;4952635;29;20511;-75
2022/03/31 09:36:01;;;;;;;12.03;7.33;;;12.30;93.20;;;;;;4952836;28;20827;-75
2022/03/31 09:43:30;;;;;;;11.40;7.83;;;12.20;93.30;;;;;;4962810;28;20448;-76
2022/03/31 09:46:50;;;;;;;10.40;7.60;;;12.30;93.50;;;;;;4939521;29;20507;-75
2022/03/31 09:50:07;;;;;;;11.20;7.97;;;12.20;93.50;;;;;;4942973;28;20436;-74
2022/03/31 09:52:33;;;;;;;10.73;8.63;;;12.20;93.60;;;;;;4953522;28;20477;-75
2022/03/31 09:55:54;;;;;;;12.20;7.80;;;12.20;93.70;;;;;;4934529;29;20437;-76
2022/03/31 09:58:20;;;;;;;10.70;8.67;;;12.20;93.80;;;;;;4952266;29;20515;-74
2022/03/31 10:00:51;;;;;;;13.80;8.20;;;12.20;93.90;;;;;;4951663;29;20663;-74
2022/03/31 10:03:18;;;;;;;13.87;8.13;;;12.20;93.90;;;;;;4952100;29;20984;-74
2022/03/31 10:05:46;;;;;;;11.77;7.83;;;12.20;94.20;;;;;;4935305;29;20481;-74
2022/03/31 10:08:13;;;;;;;11.40;7.80;;;12.20;93.80;;;;;;4951570;29;20456;-74
2022/03/31 10:11:30;;;;;;;13.10;8.17;;;12.20;93.80;;;;;;4954402;29;20426;-74
2022/03/31 10:17:41;;;;;;;10.73;7.87;;;12.20;93.90;;;;;;4952995;28;20482;-74
2022/03/31 10:20:13;;;;;;;13.20;7.80;;;12.20;94.00;;;;;;4952987;29;20452;-75
2022/03/31 10:26:40;;;;;;;10.10;7.73;;;12.20;94.10;;;;;;4934299;29;20932;-74
2022/03/31 10:33:13;;;;;;;10.10;6.80;;;12.20;94.20;;;;;;4933159;29;20465;-74
2022/03/31 10:35:45;;;;;;;11.37;7.30;;;12.20;94.20;;;;;;4933040;29;20451;-74
2022/03/31 10:38:12;;;;;;;10.67;7.30;;;12.20;94.30;;;;;;4936042;29;20439;-74
2022/03/31 10:41:29;;;;;;;9.23;7.30;;;12.20;94.40;;;;;;4952395;29;20430;-74
2022/03/31 10:44:21;;;;;;;9.53;6.83;;;12.20;94.40;;;;;;4953252;28;20456;-74
2022/03/31 10:47:02;;;;;;;12.00;7.30;;;12.20;94.40;;;;;;4952478;28;20714;-74
2022/03/31 10:49:31;;;;;;;8.97;7.20;;;12.20;94.50;;;;;;4936119;29;20793;-74
2022/03/31 10:51:58;;;;;;;11.20;7.93;;;12.20;94.50;;;;;;4952062;28;20440;-74
2022/03/31 10:54:35;;;;;;;12.17;7.70;;;12.20;94.50;;;;;;4963066;23;20509;-69
2022/03/31 10:57:09;;;;;;;10.30;7.70;;;12.20;94.50;;;;;;4937017;28;20498;-68
2022/03/31 10:59:37;;;;;;;11.73;7.00;;;12.20;94.50;;;;;;4916746;29;20474;-68
2022/03/31 11:02:54;;;;;;;11.30;7.90;;;12.20;94.50;;;;;;4932081;29;20756;-68
2022/03/31 11:05:25;;;;;;;13.03;7.47;;;12.20;94.40;;;;;;4932468;29;20461;-68
2022/03/31 11:08:18;;;;;;;10.73;7.57;;;12.20;94.30;;;;;;4932651;29;20481;-68
2022/03/31 11:10:52;;;;;;;8.93;7.80;;;12.20;94.40;;;;;;4932307;29;20509;-69
2022/03/31 11:13:35;;;;;;;8.80;6.50;;;12.20;94.40;;;;;;4931993;29;20451;-68
2022/03/31 11:16:08;;;;;;;11.03;7.37;;;12.20;94.30;;;;;;4933344;29;20522;-68
2022/03/31 11:18:34;;;;;;;9.50;6.60;;;12.20;94.30;;;;;;4916341;29;20470;-69
2022/03/31 11:21:03;;;;;;;10.70;7.60;;;12.20;94.20;;;;;;4916416;29;20415;-68
2022/03/31 11:23:31;;;;;;;8.53;6.40;;;12.20;94.20;;;;;;4931910;29;20426;-69
2022/03/31 11:25:59;;;;;;;8.27;6.70;;;12.20;94.20;;;;;;4932801;29;20497;-68
2022/03/31 11:29:15;;;;;;;9.40;7.07;;;12.20;94.30;;;;;;4933281;29;20448;-68
2022/03/31 11:32:10;;;;;;;8.40;7.10;;;12.20;94.20;;;;;;4933155;29;20406;-68
2022/03/31 11:35:04;;;;;;;10.97;7.30;;;12.20;94.10;;;;;;4932332;29;20457;-68
2022/03/31 11:38:21;;;;;;;11.27;7.20;;;12.20;94.10;;;;;;4931925;29;20421;-68
2022/03/31 11:41:12;;;;;;;8.77;6.83;;;12.20;94.10;;;;;;4931586;29;20460;-69
2022/03/31 11:43:38;;;;;;;11.63;6.73;;;12.20;94.10;;;;;;4916071;29;20929;-69
2022/03/31 11:46:41;;;;;;;9.27;7.00;;;12.20;94.10;;;;;;4916174;29;20442;-69
2022/03/31 11:49:37;;;;;;;8.90;6.67;;;12.20;94.20;;;;;;4923026;29;20465;-68
2022/03/31 11:56:21;;;;;;;8.97;6.83;;;12.10;94.10;;;;;;4929489;29;20839;-67
2022/03/31 11:59:38;;;;;;;14.60;7.60;;;12.20;94.10;;;;;;4931953;29;20440;-71
2022/03/31 12:02:15;;;;;;;8.83;7.03;;;12.10;94.20;;;;;;4920484;29;20448;-69
2022/03/31 12:04:47;;;;;;;10.40;7.00;;;12.20;94.20;;;;;;4900009;29;20426;-67
2022/03/31 12:15:31;;;;;;;9.43;7.03;;;12.10;94.20;;;;;;4933368;29;20454;-69
2022/03/31 12:18:48;;;;;;;7.70;5.60;;;12.10;94.20;;;;;;4933390;29;20412;-69
2022/03/31 12:22:04;;;;;;;8.93;7.53;;;12.10;94.30;;;;;;4933349;29;20453;-69
2022/03/31 12:24:36;;;;;;;9.83;6.30;;;12.10;94.20;;;;;;4933365;29;20392;-69
2022/03/31 12:27:14;;;;;;;9.47;6.80;;;12.10;94.20;;;;;;4905731;29;20450;-68
2022/03/31 12:29:41;;;;;;;10.40;6.70;;;12.10;94.20;;;;;;4913542;29;20841;-68
2022/03/31 12:32:12;;;;;;;8.27;6.90;;;12.10;94.30;;;;;;4899595;29;20420;-68
2022/03/31 12:35:01;;;;;;;9.90;7.43;;;12.10;94.20;;;;;;4915163;29;20493;-68
2022/03/31 12:37:36;;;;;;;12.27;7.60;;;12.10;94.20;;;;;;4918283;29;20521;-68
2022/03/31 12:40:07;;;;;;;10.93;7.77;;;12.10;94.20;;;;;;4919825;29;20534;-68
2022/03/31 12:43:00;;;;;;;11.23;7.20;;;12.10;94.20;;;;;;4887539;29;20465;-68
2022/03/31 12:46:16;;;;;;;9.60;7.10;;;12.20;94.30;;;;;;4919923;29;20922;-68
2022/03/31 12:52:21;;;;;;;11.57;8.50;;;12.10;94.30;;;;;;4919714;29;20424;-69
2022/03/31 12:55:15;;;;;;;8.77;7.40;;;12.10;94.30;;;;;;4902771;29;20467;-68
2022/03/31 12:57:41;;;;;;;11.20;7.63;;;12.10;94.30;;;;;;4902949;29;20443;-68
2022/03/31 13:00:13;;;;;;;11.70;7.90;;;12.10;94.30;;;;;;4902672;29;20448;-67
2022/03/31 13:02:43;;;;;;;9.90;7.87;;;12.10;94.40;;;;;;4902771;29;21006;-68
2022/03/31 13:06:01;;;;;;;11.27;7.80;;;12.10;94.70;;;;;;4918152;29;20468;-68
2022/03/31 13:09:19;;;;;;;9.00;7.30;;;12.10;94.40;;;;;;4919331;29;20830;-67
2022/03/31 13:11:45;;;;;;;9.63;7.93;;;12.10;94.50;;;;;;4918136;29;20403;-68
2022/03/31 13:14:41;;;;;;;10.57;8.60;;;12.10;94.50;;;;;;4926897;29;21081;-68
2022/03/31 13:17:10;;;;;;;10.20;7.50;;;12.10;94.60;;;;;;4936980;29;20447;-68
2022/03/31 13:19:38;;;;;;;12.73;8.20;;;12.10;94.60;;;;;;4936991;29;20429;-68
2022/03/31 13:22:54;;;;;;;10.13;8.00;;;12.10;94.70;;;;;;4938495;29;20831;-67
2022/03/31 13:25:20;;;;;;;12.93;9.10;;;12.10;94.70;;;;;;4938059;29;20491;-68
2022/03/31 13:28:39;;;;;;;11.67;8.10;;;12.10;94.70;;;;;;4937962;29;20411;-68
2022/03/31 13:31:58;;;;;;;10.03;7.57;;;12.10;94.80;;;;;;4938032;29;20470;-68
2022/03/31 13:35:19;;;;;;;10.63;7.77;;;12.10;94.80;;;;;;4920973;29;20460;-68
2022/03/31 13:38:13;;;;;;;12.33;8.20;;;12.10;94.80;;;;;;4937899;29;20961;-68
2022/03/31 13:40:41;;;;;;;8.63;7.67;;;12.10;94.90;;;;;;4936743;29;20495;-68
2022/03/31 13:43:58;;;;;;;9.60;7.57;;;12.00;94.90;;;;;;4937795;29;20434;-68
2022/03/31 13:47:15;;;;;;;11.60;9.00;;;12.10;95.00;;;;;;4936634;29;20451;-67
2022/03/31 13:49:41;;;;;;;12.27;8.60;;;12.00;95.00;;;;;;4937698;29;20954;-68
2022/03/31 13:52:10;;;;;;;10.43;7.40;;;12.00;95.00;;;;;;4936312;29;20537;-68
2022/03/31 13:55:01;;;;;;;9.87;8.47;;;12.00;95.00;;;;;;4936420;29;20456;-68
2022/03/31 14:01:13;;;;;;;11.23;7.50;;;12.00;95.40;;;;;;4936464;29;20819;-68
2022/03/31 14:03:42;;;;;;;9.77;7.70;;;12.00;95.10;;;;;;4937487;29;20564;-68
2022/03/31 14:07:00;;;;;;;8.37;7.27;;;12.00;95.10;;;;;;4936118;29;20448;-68
2022/03/31 14:10:41;;;;;;;9.40;6.83;;;12.00;95.20;;;;;;4937294;29;20426;-68
2022/03/31 14:14:23;;;;;;;11.13;7.80;;;12.00;95.20;;;;;;4937233;29;20623;-68
2022/03/31 14:17:16;;;;;;;8.30;6.33;;;12.00;95.30;;;;;;4920333;29;20545;-68
2022/03/31 14:20:34;;;;;;;8.97;7.53;;;11.90;95.30;;;;;;4936630;29;20812;-68
2022/03/31 14:23:03;;;;;;;9.43;7.70;;;11.90;95.30;;;;;;4935855;29;20796;-68
2022/03/31 14:26:20;;;;;;;9.07;6.90;;;11.90;95.40;;;;;;4920071;29;20976;-68
2022/03/31 14:29:44;;;;;;;8.13;6.87;;;11.90;95.40;;;;;;4937061;29;20511;-68
2022/03/31 14:32:40;;;;;;;9.70;6.73;;;11.90;95.40;;;;;;4936714;29;20428;-68
2022/03/31 14:35:33;;;;;;;9.03;7.23;;;11.90;95.40;;;;;;4935778;29;20467;-68
2022/03/31 14:38:27;;;;;;;7.50;5.83;;;11.90;95.50;;;;;;4935713;29;20447;-68
2022/03/31 14:41:19;;;;;;;7.27;5.80;;;11.90;95.60;;;;;;4936617;29;20452;-68
2022/03/31 14:44:11;;;;;;;7.80;6.17;;;11.90;95.60;;;;;;4935396;29;20410;-68
2022/03/31 14:47:06;;;;;;;7.40;5.83;;;11.90;95.60;;;;;;4936814;29;20473;-68
2022/03/31 14:50:22;;;;;;;7.77;6.50;;;11.90;95.70;;;;;;4936577;29;20461;-68
2022/03/31 14:53:39;;;;;;;7.30;5.57;;;11.90;95.70;;;;;;4935448;29;20413;-68
2022/03/31 14:56:10;;;;;;;8.00;5.97;;;11.90;95.70;;;;;;4935354;29;20444;-68
2022/03/31 14:59:01;;;;;;;7.00;6.03;;;11.90;95.70;;;;;;4919701;29;20414;-68
2022/03/31 15:01:29;;;;;;;5.93;5.30;;;11.90;95.70;;;;;;4935388;29;20441;-68
2022/03/31 15:04:20;;;;;;;6.10;5.27;;;11.90;95.70;;;;;;4935350;29;20425;-68
2022/03/31 15:06:47;;;;;;;6.60;5.57;;;11.90;95.70;;;;;;4935162;29;20890;-68
2022/03/31 15:17:16;;;;;;;5.50;4.87;;;11.90;95.80;;;;;;4936096;29;20574;-68
2022/03/31 15:20:10;;;;;;;6.40;5.60;;;11.80;95.80;;;;;;4936175;29;20407;-68
2022/03/31 15:23:34;;;;;;;8.23;5.20;;;11.80;95.80;;;;;;4936096;29;20910;-68
2022/03/31 15:27:15;;;;;;;6.53;5.60;;;11.80;95.80;;;;;;4934918;29;20826;-68
2022/03/31 15:30:57;;;;;;;5.30;4.80;;;11.80;95.90;;;;;;4922519;29;20426;-68
2022/03/31 15:34:14;;;;;;;6.00;5.13;;;11.80;95.90;;;;;;4934891;29;20468;-68
2022/03/31 15:37:56;;;;;;;6.13;5.10;;;11.80;96.00;;;;;;4934816;29;20442;-68
2022/03/31 15:41:13;;;;;;;6.00;4.73;;;11.80;96.00;;;;;;4934990;29;20481;-68
2022/03/31 15:47:23;;;;;;;7.17;5.80;;;11.80;96.10;;;;;;4935698;29;20469;-68
2022/03/31 15:50:40;;;;;;;7.17;5.93;;;11.80;96.10;;;;;;4935869;29;20491;-68
2022/03/31 15:56:52;;;;;;;7.43;5.57;;;11.70;96.10;;;;;;4935640;29;20430;-68
2022/03/31 15:59:46;;;;;;;8.50;5.40;;;11.70;96.10;;;;;;4935807;29;20887;-68
2022/03/31 16:02:20;;;;;;;7.07;5.63;;;11.80;96.10;;;;;;4918813;29;20449;-68
2022/03/31 16:08:53;;;;;;;7.10;6.03;;;11.70;96.10;;;;;;4918776;29;20423;-68
2022/03/31 16:12:09;;;;;;;7.83;6.00;;;11.70;96.10;;;;;;4934870;29;20445;-68
2022/03/31 16:15:50;;;;;;;8.03;6.27;;;11.70;96.10;;;;;;4939353;29;20450;-68